Sedan, Indiana
Current Conditions -  °F | °C
As of 1:55 AM on Monday 24 Nov 2014 (Local Time) from KGWB Reporting Station
Light Rain Light Rain  
Wind Chill: 55°   Ceiling: 700
Heat Index: 55°   Visibility: 5mi
Dew Point: 52°   Wind: 15mph
Humidity: 88%   Direction: 200°SSW
Pressure: 29.09"   Gusts: 23mph
Location:  41.4628°N, 85.0178°W
Report Text: KGWB 240655Z AUTO 20013G20KT 5SM -RA BKN007 OVC013 13/11 A2909 RMK AO2 P0008
Loading
Personal Weather Stations






























Interactive Weather Map New forecast layout! Learn more

10-Day Weather Forecast

Advertisements
Track Severe Weather on mobile